createdAt,value
2023-01-18T00:00:20.457Z,2.00
2023-01-18T00:02:50.605Z,2.10
2023-01-18T00:05:19.578Z,2.10
2023-01-18T00:07:47.949Z,2.10
2023-01-18T00:10:16.303Z,2.10
2023-01-18T00:12:45.041Z,2.10
2023-01-18T00:15:13.289Z,2.00
2023-01-18T00:17:51.508Z,1.90
2023-01-18T00:20:21.768Z,1.90
2023-01-18T00:22:50.344Z,1.90
2023-01-18T00:25:19.445Z,1.90
2023-01-18T00:27:48.707Z,1.90
2023-01-18T00:30:19.226Z,1.80
2023-01-18T00:32:47.378Z,1.80
2023-01-18T00:35:16.250Z,1.80
2023-01-18T00:37:46.015Z,1.80
2023-01-18T00:40:14.816Z,1.70
2023-01-18T00:43:01.022Z,1.70
2023-01-18T00:45:29.243Z,1.70
2023-01-18T00:47:58.211Z,1.70
2023-01-18T00:50:26.608Z,1.70
2023-01-18T00:52:57.734Z,1.70
2023-01-18T00:55:26.676Z,1.60
2023-01-18T00:57:54.666Z,1.50
2023-01-18T01:00:28.766Z,1.50
2023-01-18T01:02:57.826Z,1.50
2023-01-18T01:05:44.769Z,1.60
2023-01-18T01:08:16.934Z,1.70
2023-01-18T01:10:46.503Z,1.80
2023-01-18T01:13:32.903Z,2.00
2023-01-18T01:16:23.109Z,2.10
2023-01-18T01:19:10.194Z,2.30
2023-01-18T01:21:56.397Z,2.30
2023-01-18T01:24:43.374Z,2.40
2023-01-18T01:27:12.097Z,2.30
2023-01-18T01:29:40.207Z,2.30
2023-01-18T01:32:08.818Z,2.20
2023-01-18T01:34:37.184Z,2.20
2023-01-18T01:37:05.568Z,2.10
2023-01-18T01:39:35.333Z,2.20
2023-01-18T01:42:03.328Z,2.30
2023-01-18T01:44:43.369Z,2.30
2023-01-18T01:47:14.305Z,2.40
2023-01-18T01:49:44.054Z,2.40
2023-01-18T01:52:13.436Z,2.40
2023-01-18T01:54:44.852Z,2.30
2023-01-18T01:57:16.569Z,2.20
2023-01-18T01:59:46.693Z,2.00
2023-01-18T02:02:14.788Z,1.70
2023-01-18T02:04:44.290Z,1.50
2023-01-18T02:07:12.670Z,1.10
2023-01-18T02:09:41.045Z,0.90
2023-01-18T02:12:10.677Z,0.80
2023-01-18T02:14:38.923Z,0.70
2023-01-18T02:17:12.886Z,0.60
2023-01-18T02:19:50.216Z,0.70
2023-01-18T02:22:28.011Z,0.80
2023-01-18T02:25:05.066Z,0.80
2023-01-18T02:27:43.826Z,0.90
2023-01-18T02:30:21.918Z,1.00
2023-01-18T02:33:05.011Z,1.10
2023-01-18T02:35:42.457Z,1.10
2023-01-18T02:38:12.600Z,1.10
2023-01-18T02:40:46.337Z,1.00
2023-01-18T02:43:33.098Z,0.90
2023-01-18T02:46:20.041Z,0.80
2023-01-18T02:48:50.162Z,0.80
2023-01-18T02:51:18.412Z,0.70
2023-01-18T02:53:47.574Z,0.70
2023-01-18T02:56:17.276Z,0.60
2023-01-18T02:58:46.774Z,0.70
2023-01-18T03:01:18.915Z,0.70
2023-01-18T03:03:49.091Z,0.70
2023-01-18T03:06:17.634Z,0.70
2023-01-18T03:08:47.445Z,0.70
2023-01-18T03:11:18.021Z,0.70
2023-01-18T03:13:55.191Z,0.70
2023-01-18T03:16:26.067Z,0.70
2023-01-18T03:19:04.194Z,0.70
2023-01-18T03:21:41.127Z,0.70
2023-01-18T03:24:09.433Z,0.90
2023-01-18T03:26:39.819Z,1.00
2023-01-18T03:29:26.194Z,1.00
2023-01-18T03:32:16.041Z,1.00
2023-01-18T03:34:47.927Z,1.00
2023-01-18T03:37:18.013Z,1.00
2023-01-18T03:39:47.806Z,1.00
2023-01-18T03:42:18.848Z,1.00
2023-01-18T03:44:48.846Z,1.00
2023-01-18T03:47:18.497Z,1.00
2023-01-18T03:49:47.293Z,1.00
2023-01-18T03:52:17.781Z,0.90
2023-01-18T03:54:55.892Z,1.00
2023-01-18T03:57:26.522Z,1.00
2023-01-18T03:59:54.769Z,1.00
2023-01-18T04:02:24.350Z,1.10
2023-01-18T04:04:57.571Z,1.10
2023-01-18T04:07:26.613Z,1.20
2023-01-18T04:09:55.181Z,1.20
2023-01-18T04:12:23.192Z,1.20
2023-01-18T04:14:51.469Z,1.30
2023-01-18T04:17:19.713Z,1.30
2023-01-18T04:19:49.295Z,1.30
2023-01-18T04:22:17.856Z,1.30
2023-01-18T04:24:46.167Z,1.20
2023-01-18T04:27:14.693Z,1.20
2023-01-18T04:29:42.848Z,1.30
2023-01-18T04:32:11.455Z,1.30
2023-01-18T04:34:39.673Z,1.40
2023-01-18T04:37:09.680Z,1.50
2023-01-18T04:39:37.767Z,1.50
2023-01-18T04:42:06.368Z,1.50
2023-01-18T04:44:34.861Z,1.60
2023-01-18T04:47:03.173Z,1.60
2023-01-18T04:49:31.819Z,1.60
2023-01-18T04:51:59.862Z,1.70
2023-01-18T04:54:30.686Z,1.70
2023-01-18T04:56:58.899Z,1.60
2023-01-18T04:59:28.360Z,1.60
2023-01-18T05:01:57.138Z,1.60
2023-01-18T05:04:26.303Z,1.70
2023-01-18T05:06:57.668Z,1.70
2023-01-18T05:09:25.777Z,1.70
2023-01-18T05:11:55.409Z,1.80
2023-01-18T05:14:23.456Z,1.90
2023-01-18T05:16:51.917Z,2.00
2023-01-18T05:19:20.200Z,2.10
2023-01-18T05:21:48.271Z,2.10
2023-01-18T05:24:16.899Z,2.10
2023-01-18T05:26:45.051Z,2.10
2023-01-18T05:29:14.935Z,2.10
2023-01-18T05:31:42.967Z,2.20
2023-01-18T05:34:11.275Z,2.10
2023-01-18T05:36:39.288Z,2.20
2023-01-18T05:39:09.289Z,2.20
2023-01-18T05:41:37.353Z,2.20
2023-01-18T05:44:05.611Z,2.20
2023-01-18T05:46:35.426Z,2.20
2023-01-18T05:49:03.707Z,2.10
2023-01-18T05:51:32.154Z,2.10
2023-01-18T05:54:00.395Z,2.10
2023-01-18T05:56:28.916Z,2.10
2023-01-18T05:58:57.059Z,2.10
2023-01-18T06:01:25.337Z,2.00
2023-01-18T06:03:54.757Z,2.10
2023-01-18T06:06:23.248Z,2.10
2023-01-18T06:08:51.374Z,2.10
2023-01-18T06:11:19.459Z,2.10
2023-01-18T06:13:48.014Z,2.10
2023-01-18T06:16:16.082Z,2.10
2023-01-18T06:18:45.271Z,2.10
2023-01-18T06:21:15.316Z,2.10
2023-01-18T06:23:43.589Z,2.10
2023-01-18T06:26:11.712Z,2.20
2023-01-18T06:28:40.205Z,2.10
2023-01-18T06:31:08.572Z,2.00
2023-01-18T06:33:36.849Z,2.10
2023-01-18T06:36:06.038Z,2.10
2023-01-18T06:38:35.447Z,2.00
2023-01-18T06:41:03.881Z,2.10
2023-01-18T06:43:31.955Z,2.20
2023-01-18T06:46:00.562Z,2.20
2023-01-18T06:48:29.793Z,2.20
2023-01-18T06:50:58.864Z,2.20
2023-01-18T06:53:27.180Z,2.10
2023-01-18T06:55:57.913Z,2.10
2023-01-18T06:58:27.211Z,2.10
2023-01-18T07:00:56.026Z,2.20
2023-01-18T07:03:24.793Z,2.20
2023-01-18T07:05:53.842Z,2.20
2023-01-18T07:08:22.780Z,2.10
2023-01-18T07:10:52.537Z,2.10
2023-01-18T07:13:22.452Z,2.10
2023-01-18T07:15:54.061Z,2.10
2023-01-18T07:18:23.182Z,2.20
2023-01-18T07:20:57.217Z,2.20
2023-01-18T07:23:25.888Z,2.30
2023-01-18T07:26:03.975Z,2.30
2023-01-18T07:28:35.155Z,2.20
2023-01-18T07:31:03.531Z,2.20
2023-01-18T07:33:31.660Z,2.20
2023-01-18T07:36:00.052Z,2.20
2023-01-18T07:38:28.902Z,2.30
2023-01-18T07:41:02.405Z,2.30
2023-01-18T07:43:30.887Z,2.30
2023-01-18T07:46:01.101Z,2.30
2023-01-18T07:48:29.449Z,2.40
2023-01-18T07:50:58.365Z,2.40
2023-01-18T07:53:26.944Z,2.40
2023-01-18T07:55:55.733Z,2.50
2023-01-18T07:58:24.187Z,2.50
2023-01-18T08:00:52.565Z,2.60
2023-01-18T08:03:22.576Z,2.60
2023-01-18T08:05:50.650Z,2.60
2023-01-18T08:08:19.583Z,2.60
2023-01-18T08:10:47.651Z,2.70
2023-01-18T08:13:15.674Z,2.70
2023-01-18T08:15:44.147Z,2.80
2023-01-18T08:18:12.905Z,2.80
2023-01-18T08:20:45.238Z,2.80
2023-01-18T08:23:13.675Z,2.80
2023-01-18T08:25:42.580Z,2.90
2023-01-18T08:28:10.996Z,2.90
2023-01-18T08:30:41.234Z,2.90
2023-01-18T08:33:09.420Z,2.90
2023-01-18T08:35:41.423Z,2.90
2023-01-18T08:38:11.739Z,3.00
2023-01-18T08:40:40.133Z,3.00
2023-01-18T08:43:08.859Z,3.00
2023-01-18T08:45:36.913Z,3.00
2023-01-18T08:48:06.159Z,3.00
2023-01-18T08:50:35.013Z,3.00
2023-01-18T08:53:03.555Z,3.10
2023-01-18T08:55:35.110Z,3.10
2023-01-18T08:58:03.394Z,3.20
2023-01-18T09:00:31.437Z,3.20
2023-01-18T09:03:02.013Z,3.20
2023-01-18T09:05:30.495Z,3.20
2023-01-18T09:07:58.772Z,3.20
2023-01-18T09:10:27.240Z,3.30
2023-01-18T09:12:57.176Z,3.30
2023-01-18T09:15:27.194Z,3.40
2023-01-18T09:18:05.186Z,3.40
2023-01-18T09:20:36.311Z,3.50
2023-01-18T09:23:05.648Z,3.50
2023-01-18T09:25:33.906Z,3.50
2023-01-18T09:28:04.866Z,3.50
2023-01-18T09:30:33.402Z,3.50
2023-01-18T09:33:02.237Z,3.50
2023-01-18T09:35:30.577Z,3.50
2023-01-18T09:37:58.813Z,3.50
2023-01-18T09:40:31.756Z,3.50
2023-01-18T09:43:01.061Z,3.50
2023-01-18T09:45:33.250Z,3.60
2023-01-18T09:48:03.576Z,3.60
2023-01-18T09:50:32.792Z,3.60
2023-01-18T09:53:07.054Z,3.60
2023-01-18T09:55:42.432Z,3.60
2023-01-18T09:58:16.066Z,3.60
2023-01-18T10:00:47.475Z,3.50
2023-01-18T10:03:18.872Z,3.50
2023-01-18T10:05:50.782Z,3.50
2023-01-18T10:08:21.139Z,3.40
2023-01-18T10:10:53.168Z,3.40
2023-01-18T10:13:39.369Z,3.40
2023-01-18T10:16:14.624Z,3.30
2023-01-18T10:18:46.331Z,3.30
2023-01-18T10:21:20.189Z,3.30
2023-01-18T10:24:13.432Z,3.30
2023-01-18T10:26:42.414Z,3.50
2023-01-18T10:29:16.032Z,3.60
2023-01-18T10:31:50.393Z,3.60
2023-01-18T10:34:20.398Z,3.70
2023-01-18T10:36:50.363Z,3.70
2023-01-18T10:39:28.008Z,3.70
2023-01-18T10:41:58.596Z,3.70
2023-01-18T10:44:27.490Z,3.60
2023-01-18T10:46:58.058Z,3.60
2023-01-18T10:49:36.842Z,3.60
2023-01-18T10:52:18.565Z,3.70
2023-01-18T10:54:51.047Z,3.70
2023-01-18T10:57:21.584Z,3.80
2023-01-18T10:59:52.272Z,3.90
2023-01-18T11:02:27.408Z,4.30
2023-01-18T11:04:58.529Z,4.30
2023-01-18T11:07:27.777Z,4.20
2023-01-18T11:09:59.553Z,4.00
2023-01-18T11:12:34.940Z,3.90
2023-01-18T11:15:23.969Z,3.90
2023-01-18T11:18:06.493Z,3.80
2023-01-18T11:20:36.480Z,3.70
2023-01-18T11:23:06.750Z,3.70
2023-01-18T11:25:39.339Z,3.70
2023-01-18T11:28:13.369Z,3.60
2023-01-18T11:30:49.527Z,3.60
2023-01-18T11:33:19.578Z,3.60
2023-01-18T11:35:53.711Z,3.60
2023-01-18T11:38:22.390Z,3.50
2023-01-18T11:41:03.126Z,3.50
2023-01-18T11:43:31.951Z,3.50
2023-01-18T11:46:04.665Z,3.50
2023-01-18T11:48:36.933Z,3.50
2023-01-18T11:51:07.253Z,3.50
2023-01-18T11:53:43.689Z,3.50
2023-01-18T11:56:14.805Z,3.50
2023-01-18T11:58:42.845Z,3.50
2023-01-18T12:01:26.252Z,3.50
2023-01-18T12:03:59.967Z,3.50
2023-01-18T12:06:33.192Z,3.80
2023-01-18T12:09:06.284Z,3.90
2023-01-18T12:11:45.645Z,3.80
2023-01-18T12:14:20.312Z,3.70
2023-01-18T12:17:02.696Z,3.60
2023-01-18T12:19:41.811Z,3.50
2023-01-18T12:22:18.369Z,3.50
2023-01-18T12:24:49.956Z,3.40
2023-01-18T12:27:22.812Z,3.40
2023-01-18T12:30:09.180Z,3.30
2023-01-18T12:32:45.233Z,3.30
2023-01-18T12:35:25.559Z,3.20
2023-01-18T12:37:57.150Z,3.40
2023-01-18T12:40:43.440Z,3.90
2023-01-18T12:43:18.594Z,4.40
2023-01-18T12:45:49.352Z,4.80
2023-01-18T12:48:21.267Z,4.70
2023-01-18T12:50:51.325Z,4.70
2023-01-18T12:53:22.108Z,4.70
2023-01-18T12:55:51.559Z,4.90
2023-01-18T12:58:21.245Z,5.20
2023-01-18T13:00:51.072Z,5.30
2023-01-18T13:03:24.318Z,5.40
2023-01-18T13:05:56.781Z,5.30
2023-01-18T13:08:30.582Z,5.00
2023-01-18T13:11:03.953Z,4.60
2023-01-18T13:13:32.230Z,4.30
2023-01-18T13:16:04.525Z,4.00
2023-01-18T13:18:36.702Z,3.80
2023-01-18T13:21:17.027Z,3.50
2023-01-18T13:23:50.447Z,3.40
2023-01-18T13:26:22.114Z,3.20
2023-01-18T13:29:06.551Z,3.20
2023-01-18T13:31:35.248Z,3.10
2023-01-18T13:34:04.505Z,3.10
2023-01-18T13:36:44.885Z,3.00
2023-01-18T13:39:15.252Z,2.90
2023-01-18T13:41:58.735Z,2.90
2023-01-18T13:44:30.271Z,2.90
2023-01-18T13:46:58.696Z,2.90
2023-01-18T13:49:37.558Z,2.80
2023-01-18T13:52:21.359Z,2.80
2023-01-18T13:55:05.399Z,2.70
2023-01-18T13:57:35.733Z,2.70
2023-01-18T14:00:04.842Z,2.70
2023-01-18T14:02:42.636Z,2.70
2023-01-18T14:05:19.907Z,2.70
2023-01-18T14:07:51.476Z,2.80
2023-01-18T14:10:26.828Z,2.80
2023-01-18T14:12:55.977Z,2.80
2023-01-18T14:15:26.155Z,2.80
2023-01-18T14:17:58.865Z,2.80
2023-01-18T14:20:48.449Z,2.80
2023-01-18T14:23:25.024Z,2.80
2023-01-18T14:25:59.562Z,2.80
2023-01-18T14:28:32.369Z,2.90
2023-01-18T14:31:02.664Z,2.80
2023-01-18T14:33:33.834Z,2.80
2023-01-18T14:36:02.697Z,2.80
2023-01-18T14:38:31.397Z,2.80
2023-01-18T14:41:05.148Z,2.80
2023-01-18T14:43:34.573Z,2.70
2023-01-18T14:46:03.856Z,2.70
2023-01-18T14:48:34.506Z,2.60
2023-01-18T14:51:08.590Z,2.60
2023-01-18T14:53:43.003Z,2.60
2023-01-18T14:56:17.296Z,2.60
2023-01-18T14:58:51.936Z,2.50
2023-01-18T15:01:27.854Z,2.50
2023-01-18T15:03:56.683Z,2.50
2023-01-18T15:06:29.054Z,2.50
2023-01-18T15:08:57.285Z,2.50
2023-01-18T15:11:27.230Z,2.50
2023-01-18T15:13:57.127Z,2.50
2023-01-18T15:16:28.062Z,2.50
2023-01-18T15:18:56.608Z,2.40
2023-01-18T15:21:25.672Z,2.40
2023-01-18T15:23:56.518Z,2.40
2023-01-18T15:26:36.535Z,2.40
2023-01-18T15:29:09.444Z,2.30
2023-01-18T15:31:46.133Z,2.30
2023-01-18T15:34:16.296Z,2.30
2023-01-18T15:36:45.083Z,2.40
2023-01-18T15:39:13.777Z,2.40
2023-01-18T15:41:44.593Z,2.40
2023-01-18T15:44:26.641Z,2.40
2023-01-18T15:46:55.198Z,2.40
2023-01-18T15:49:23.301Z,2.40
2023-01-18T15:51:56.631Z,2.40
2023-01-18T15:54:25.967Z,2.40
2023-01-18T15:56:57.729Z,2.30
2023-01-18T15:59:27.321Z,2.30
2023-01-18T16:02:05.760Z,2.20
2023-01-18T16:04:35.798Z,2.20
2023-01-18T16:07:19.142Z,2.20
2023-01-18T16:09:47.168Z,2.20
2023-01-18T16:12:33.258Z,2.20
2023-01-18T16:15:01.410Z,2.20
2023-01-18T16:17:32.232Z,2.20
2023-01-18T16:20:01.201Z,2.10
2023-01-18T16:22:33.219Z,2.10
2023-01-18T16:25:03.274Z,2.10
2023-01-18T16:27:34.375Z,2.10
2023-01-18T16:30:04.556Z,2.10
2023-01-18T16:32:35.548Z,2.00
2023-01-18T16:35:11.423Z,2.00
2023-01-18T16:37:41.571Z,2.00
2023-01-18T16:40:10.181Z,2.00
2023-01-18T16:42:55.205Z,1.90
2023-01-18T16:45:26.335Z,2.00
2023-01-18T16:47:54.733Z,2.00
2023-01-18T16:50:22.801Z,2.00
2023-01-18T16:52:51.220Z,2.00
2023-01-18T16:55:19.303Z,2.10
2023-01-18T16:57:51.444Z,2.00
2023-01-18T17:00:21.655Z,2.00
2023-01-18T17:02:50.319Z,2.00
2023-01-18T17:05:19.006Z,2.00
2023-01-18T17:07:47.793Z,2.00
2023-01-18T17:10:21.333Z,2.00
2023-01-18T17:12:50.783Z,2.00
2023-01-18T17:15:20.291Z,2.00
2023-01-18T17:17:48.453Z,2.00
2023-01-18T17:20:18.478Z,2.00
2023-01-18T17:22:46.522Z,2.00
2023-01-18T17:25:15.327Z,2.00
2023-01-18T17:27:43.529Z,2.00
2023-01-18T17:30:14.153Z,2.00
2023-01-18T17:32:42.202Z,2.00
2023-01-18T17:35:12.050Z,2.00
2023-01-18T17:37:40.173Z,2.00
2023-01-18T17:40:16.711Z,2.10
2023-01-18T17:42:46.410Z,2.00
2023-01-18T17:45:15.881Z,2.00
2023-01-18T17:47:44.753Z,2.00
2023-01-18T17:50:17.264Z,2.00
2023-01-18T17:52:49.409Z,2.00
2023-01-18T17:55:21.563Z,2.10
2023-01-18T17:57:54.900Z,2.10
2023-01-18T18:00:24.905Z,2.10
2023-01-18T18:02:54.286Z,2.10
2023-01-18T18:05:22.563Z,2.10
2023-01-18T18:07:52.701Z,2.10
2023-01-18T18:10:20.974Z,2.20
2023-01-18T18:12:49.493Z,2.20
2023-01-18T18:15:17.633Z,2.30
2023-01-18T18:17:47.794Z,2.30
2023-01-18T18:20:16.037Z,2.30
2023-01-18T18:22:44.637Z,2.20
2023-01-18T18:25:13.920Z,2.30
2023-01-18T18:27:46.170Z,2.20
2023-01-18T18:30:15.257Z,2.20
2023-01-18T18:32:43.860Z,2.20
2023-01-18T18:35:25.531Z,2.20
2023-01-18T18:37:55.785Z,2.30
2023-01-18T18:40:24.181Z,2.30
2023-01-18T18:43:01.620Z,2.20
2023-01-18T18:45:31.111Z,2.20
2023-01-18T18:47:59.416Z,2.20
2023-01-18T18:50:28.987Z,2.10
2023-01-18T18:52:57.986Z,2.10
2023-01-18T18:55:26.257Z,2.10
2023-01-18T18:57:54.330Z,2.00
2023-01-18T19:00:24.683Z,2.00
2023-01-18T19:02:52.989Z,1.90
2023-01-18T19:05:21.249Z,1.90
2023-01-18T19:07:51.263Z,1.90
2023-01-18T19:10:20.528Z,1.90
2023-01-18T19:12:48.634Z,1.90
2023-01-18T19:15:17.313Z,1.90
2023-01-18T19:17:45.492Z,1.90
2023-01-18T19:20:16.008Z,2.00
2023-01-18T19:22:44.226Z,2.00
2023-01-18T19:25:14.043Z,2.00
2023-01-18T19:27:42.699Z,1.90
2023-01-18T19:30:12.874Z,1.90
2023-01-18T19:32:41.176Z,1.90
2023-01-18T19:35:09.477Z,1.90
2023-01-18T19:37:38.662Z,1.90
2023-01-18T19:40:07.516Z,1.80
2023-01-18T19:42:37.135Z,1.80
2023-01-18T19:45:08.072Z,1.80
2023-01-18T19:47:36.505Z,1.70
2023-01-18T19:50:05.274Z,1.70
2023-01-18T19:52:33.565Z,1.70
2023-01-18T19:55:02.377Z,1.70
2023-01-18T19:57:30.732Z,1.70
2023-01-18T20:00:00.582Z,1.60
2023-01-18T20:02:29.168Z,1.60
2023-01-18T20:04:58.217Z,1.60
2023-01-18T20:07:26.750Z,1.70
2023-01-18T20:09:54.742Z,1.70
2023-01-18T20:12:24.015Z,1.70
2023-01-18T20:14:52.090Z,1.60
2023-01-18T20:17:22.260Z,1.60
2023-01-18T20:19:54.043Z,1.70
2023-01-18T20:22:22.978Z,1.60
2023-01-18T20:24:51.007Z,1.60
2023-01-18T20:27:19.704Z,1.60
2023-01-18T20:29:48.316Z,1.60
2023-01-18T20:32:17.799Z,1.70
2023-01-18T20:34:48.859Z,1.70
2023-01-18T20:37:17.307Z,1.70
2023-01-18T20:39:45.395Z,1.60
2023-01-18T20:42:15.417Z,1.60
2023-01-18T20:44:48.931Z,1.60
2023-01-18T20:47:16.953Z,1.60
2023-01-18T20:49:46.958Z,1.60
2023-01-18T20:52:16.809Z,1.60
2023-01-18T20:54:44.813Z,1.50
2023-01-18T20:57:13.246Z,1.50
2023-01-18T20:59:41.323Z,1.50
2023-01-18T21:02:10.945Z,1.40
2023-01-18T21:04:39.232Z,1.40
2023-01-18T21:07:07.829Z,1.40
2023-01-18T21:09:37.331Z,1.40
2023-01-18T21:12:05.656Z,1.40
2023-01-18T21:14:33.669Z,1.40
2023-01-18T21:17:01.951Z,1.40
2023-01-18T21:19:29.975Z,1.40
2023-01-18T21:21:58.349Z,1.40
2023-01-18T21:24:26.967Z,1.30
2023-01-18T21:26:56.382Z,1.30
2023-01-18T21:29:24.407Z,1.20
2023-01-18T21:31:52.820Z,1.20
2023-01-18T21:34:21.953Z,1.20
2023-01-18T21:36:51.697Z,1.20
2023-01-18T21:39:25.293Z,1.20
2023-01-18T21:42:11.400Z,1.10
2023-01-18T21:44:59.006Z,1.10
2023-01-18T21:47:28.389Z,1.10
2023-01-18T21:50:20.009Z,1.10
2023-01-18T21:53:05.677Z,1.10
2023-01-18T21:55:34.184Z,1.10
2023-01-18T21:58:19.555Z,1.10
2023-01-18T22:00:49.572Z,1.10
2023-01-18T22:03:18.682Z,1.10
2023-01-18T22:05:47.294Z,1.10
2023-01-18T22:08:15.321Z,1.20
2023-01-18T22:10:46.712Z,1.20
2023-01-18T22:13:15.458Z,1.20
2023-01-18T22:15:43.487Z,1.20
2023-01-18T22:18:13.446Z,1.20
2023-01-18T22:20:41.495Z,1.20
2023-01-18T22:23:09.674Z,1.20
2023-01-18T22:25:38.457Z,1.20
2023-01-18T22:28:06.413Z,1.20
2023-01-18T22:30:34.889Z,1.20
2023-01-18T22:33:02.940Z,1.20
2023-01-18T22:35:32.816Z,1.20
2023-01-18T22:38:01.177Z,1.10
2023-01-18T22:40:30.022Z,1.20
2023-01-18T22:42:58.445Z,1.20
2023-01-18T22:45:27.268Z,1.20
2023-01-18T22:47:55.538Z,1.10
2023-01-18T22:50:23.579Z,1.20
2023-01-18T22:52:53.542Z,1.10
2023-01-18T22:55:21.566Z,1.10
2023-01-18T22:57:49.945Z,1.10
2023-01-18T23:00:18.548Z,1.20
2023-01-18T23:02:46.788Z,1.20
2023-01-18T23:05:14.824Z,1.20
2023-01-18T23:07:42.824Z,1.10
2023-01-18T23:10:12.699Z,1.10
2023-01-18T23:12:40.716Z,1.10
2023-01-18T23:15:28.213Z,1.10
2023-01-18T23:17:56.312Z,1.00
2023-01-18T23:20:24.851Z,1.00
2023-01-18T23:22:52.972Z,1.00
2023-01-18T23:25:23.016Z,1.00
2023-01-18T23:27:51.044Z,1.00
2023-01-18T23:30:19.651Z,1.00
2023-01-18T23:32:47.678Z,1.00
2023-01-18T23:35:16.265Z,1.10
2023-01-18T23:37:44.283Z,1.10
2023-01-18T23:40:30.493Z,1.10
2023-01-18T23:43:17.376Z,1.10
2023-01-18T23:46:03.235Z,1.00
2023-01-18T23:48:48.730Z,1.00
2023-01-18T23:51:34.857Z,1.00
2023-01-18T23:54:16.645Z,1.00
2023-01-18T23:56:46.720Z,1.00
2023-01-18T23:59:16.187Z,1.10
